sensor_id;sensor_type;location;lat;lon;timestamp;P1;durP1;ratioP1;P2;durP2;ratioP2
34928;SDS011;21133;48.048;7.724;2022-12-05T00:00:19;16.33;;;9.70;;
34928;SDS011;21133;48.048;7.724;2022-12-05T00:02:46;12.77;;;9.67;;
34928;SDS011;21133;48.048;7.724;2022-12-05T00:05:12;13.17;;;9.53;;
34928;SDS011;21133;48.048;7.724;2022-12-05T00:07:38;13.63;;;9.83;;
34928;SDS011;21133;48.048;7.724;2022-12-05T00:10:04;12.30;;;8.37;;
34928;SDS011;21133;48.048;7.724;2022-12-05T00:12:30;15.80;;;10.53;;
34928;SDS011;21133;48.048;7.724;2022-12-05T00:14:56;11.67;;;9.27;;
34928;SDS011;21133;48.048;7.724;2022-12-05T00:17:22;15.10;;;9.00;;
34928;SDS011;21133;48.048;7.724;2022-12-05T00:19:48;14.07;;;8.60;;
34928;SDS011;21133;48.048;7.724;2022-12-05T00:22:14;13.40;;;8.83;;
34928;SDS011;21133;48.048;7.724;2022-12-05T00:24:40;17.43;;;9.80;;
34928;SDS011;21133;48.048;7.724;2022-12-05T00:27:06;12.03;;;9.00;;
34928;SDS011;21133;48.048;7.724;2022-12-05T00:29:32;15.63;;;9.90;;
34928;SDS011;21133;48.048;7.724;2022-12-05T00:31:58;11.43;;;9.20;;
34928;SDS011;21133;48.048;7.724;2022-12-05T00:34:24;13.70;;;9.80;;
34928;SDS011;21133;48.048;7.724;2022-12-05T00:36:50;10.27;;;8.73;;
34928;SDS011;21133;48.048;7.724;2022-12-05T00:39:16;10.70;;;9.10;;
34928;SDS011;21133;48.048;7.724;2022-12-05T00:41:42;13.33;;;9.83;;
34928;SDS011;21133;48.048;7.724;2022-12-05T00:44:09;15.30;;;9.63;;
34928;SDS011;21133;48.048;7.724;2022-12-05T00:46:35;12.50;;;10.00;;
34928;SDS011;21133;48.048;7.724;2022-12-05T00:49:02;16.23;;;9.70;;
34928;SDS011;21133;48.048;7.724;2022-12-05T00:51:30;17.73;;;10.67;;
34928;SDS011;21133;48.048;7.724;2022-12-05T00:53:57;28.97;;;10.47;;
34928;SDS011;21133;48.048;7.724;2022-12-05T00:56:24;13.37;;;10.07;;
34928;SDS011;21133;48.048;7.724;2022-12-05T00:58:51;16.93;;;10.60;;
34928;SDS011;21133;48.048;7.724;2022-12-05T01:01:28;16.10;;;9.90;;
34928;SDS011;21133;48.048;7.724;2022-12-05T01:03:56;13.70;;;9.80;;
34928;SDS011;21133;48.048;7.724;2022-12-05T01:06:23;15.23;;;9.93;;
34928;SDS011;21133;48.048;7.724;2022-12-05T01:08:52;14.03;;;9.60;;
34928;SDS011;21133;48.048;7.724;2022-12-05T01:11:18;17.23;;;10.63;;
34928;SDS011;21133;48.048;7.724;2022-12-05T01:13:45;15.27;;;9.80;;
34928;SDS011;21133;48.048;7.724;2022-12-05T01:16:15;18.00;;;10.13;;
34928;SDS011;21133;48.048;7.724;2022-12-05T01:18:41;16.67;;;9.13;;
34928;SDS011;21133;48.048;7.724;2022-12-05T01:21:07;19.97;;;10.87;;
34928;SDS011;21133;48.048;7.724;2022-12-05T01:23:33;14.07;;;9.70;;
34928;SDS011;21133;48.048;7.724;2022-12-05T01:25:59;15.33;;;9.73;;
34928;SDS011;21133;48.048;7.724;2022-12-05T01:28:25;16.57;;;9.20;;
34928;SDS011;21133;48.048;7.724;2022-12-05T01:30:51;17.00;;;9.20;;
34928;SDS011;21133;48.048;7.724;2022-12-05T01:33:17;15.63;;;10.70;;
34928;SDS011;21133;48.048;7.724;2022-12-05T01:35:43;15.07;;;9.47;;
34928;SDS011;21133;48.048;7.724;2022-12-05T01:38:09;14.47;;;10.03;;
34928;SDS011;21133;48.048;7.724;2022-12-05T01:40:36;16.00;;;10.33;;
34928;SDS011;21133;48.048;7.724;2022-12-05T01:43:02;14.47;;;10.53;;
34928;SDS011;21133;48.048;7.724;2022-12-05T01:45:34;14.47;;;9.80;;
34928;SDS011;21133;48.048;7.724;2022-12-05T01:48:02;14.60;;;10.77;;
34928;SDS011;21133;48.048;7.724;2022-12-05T01:50:29;17.90;;;11.70;;
34928;SDS011;21133;48.048;7.724;2022-12-05T01:52:57;13.33;;;9.30;;
34928;SDS011;21133;48.048;7.724;2022-12-05T01:55:23;22.00;;;10.80;;
34928;SDS011;21133;48.048;7.724;2022-12-05T01:57:49;16.13;;;11.87;;
34928;SDS011;21133;48.048;7.724;2022-12-05T02:00:16;17.60;;;11.03;;
34928;SDS011;21133;48.048;7.724;2022-12-05T02:02:48;13.80;;;9.73;;
34928;SDS011;21133;48.048;7.724;2022-12-05T02:05:23;17.97;;;10.40;;
34928;SDS011;21133;48.048;7.724;2022-12-05T02:07:50;14.03;;;9.80;;
34928;SDS011;21133;48.048;7.724;2022-12-05T02:10:16;15.57;;;10.53;;
34928;SDS011;21133;48.048;7.724;2022-12-05T02:12:42;17.80;;;12.03;;
34928;SDS011;21133;48.048;7.724;2022-12-05T02:15:16;17.43;;;11.63;;
34928;SDS011;21133;48.048;7.724;2022-12-05T02:21:17;22.80;;;10.50;;
34928;SDS011;21133;48.048;7.724;2022-12-05T02:23:21;15.43;;;10.37;;
34928;SDS011;21133;48.048;7.724;2022-12-05T02:25:54;20.80;;;11.53;;
34928;SDS011;21133;48.048;7.724;2022-12-05T02:31:32;15.03;;;9.30;;
34928;SDS011;21133;48.048;7.724;2022-12-05T02:34:08;15.37;;;10.03;;
34928;SDS011;21133;48.048;7.724;2022-12-05T02:37:19;14.27;;;10.00;;
34928;SDS011;21133;48.048;7.724;2022-12-05T02:42:04;15.10;;;9.63;;
34928;SDS011;21133;48.048;7.724;2022-12-05T02:44:39;13.93;;;9.27;;
34928;SDS011;21133;48.048;7.724;2022-12-05T02:47:06;16.53;;;10.37;;
34928;SDS011;21133;48.048;7.724;2022-12-05T02:49:34;17.70;;;11.50;;
34928;SDS011;21133;48.048;7.724;2022-12-05T02:52:02;16.33;;;10.90;;
34928;SDS011;21133;48.048;7.724;2022-12-05T02:54:30;21.57;;;10.70;;
34928;SDS011;21133;48.048;7.724;2022-12-05T02:56:58;18.17;;;10.43;;
34928;SDS011;21133;48.048;7.724;2022-12-05T02:59:25;16.20;;;10.40;;
34928;SDS011;21133;48.048;7.724;2022-12-05T03:01:51;13.00;;;9.20;;
34928;SDS011;21133;48.048;7.724;2022-12-05T03:04:18;18.57;;;10.67;;
34928;SDS011;21133;48.048;7.724;2022-12-05T03:06:56;19.03;;;10.57;;
34928;SDS011;21133;48.048;7.724;2022-12-05T03:09:24;16.10;;;9.27;;
34928;SDS011;21133;48.048;7.724;2022-12-05T03:11:55;11.83;;;8.70;;
34928;SDS011;21133;48.048;7.724;2022-12-05T03:14:30;17.73;;;10.47;;
34928;SDS011;21133;48.048;7.724;2022-12-05T03:16:59;20.63;;;9.53;;
34928;SDS011;21133;48.048;7.724;2022-12-05T03:19:29;17.07;;;9.30;;
34928;SDS011;21133;48.048;7.724;2022-12-05T03:21:59;17.87;;;10.10;;
34928;SDS011;21133;48.048;7.724;2022-12-05T03:24:26;11.60;;;9.40;;
34928;SDS011;21133;48.048;7.724;2022-12-05T03:27:10;15.70;;;10.33;;
34928;SDS011;21133;48.048;7.724;2022-12-05T03:34:42;16.40;;;9.77;;
34928;SDS011;21133;48.048;7.724;2022-12-05T03:37:12;17.50;;;9.83;;
34928;SDS011;21133;48.048;7.724;2022-12-05T03:39:40;15.43;;;10.20;;
34928;SDS011;21133;48.048;7.724;2022-12-05T03:44:37;19.30;;;10.00;;
34928;SDS011;21133;48.048;7.724;2022-12-05T03:47:10;17.17;;;11.13;;
34928;SDS011;21133;48.048;7.724;2022-12-05T03:49:46;14.83;;;9.87;;
34928;SDS011;21133;48.048;7.724;2022-12-05T03:52:18;16.30;;;10.07;;
34928;SDS011;21133;48.048;7.724;2022-12-05T03:54:45;13.90;;;9.40;;
34928;SDS011;21133;48.048;7.724;2022-12-05T03:57:15;14.67;;;10.50;;
34928;SDS011;21133;48.048;7.724;2022-12-05T03:59:45;13.93;;;9.80;;
34928;SDS011;21133;48.048;7.724;2022-12-05T04:02:13;13.83;;;9.13;;
34928;SDS011;21133;48.048;7.724;2022-12-05T04:04:45;15.60;;;10.00;;
34928;SDS011;21133;48.048;7.724;2022-12-05T04:07:12;13.23;;;9.40;;
34928;SDS011;21133;48.048;7.724;2022-12-05T04:09:42;15.00;;;9.80;;
34928;SDS011;21133;48.048;7.724;2022-12-05T04:12:10;14.27;;;10.37;;
34928;SDS011;21133;48.048;7.724;2022-12-05T04:14:40;13.50;;;10.10;;
34928;SDS011;21133;48.048;7.724;2022-12-05T04:19:44;12.13;;;9.23;;
34928;SDS011;21133;48.048;7.724;2022-12-05T04:22:30;17.90;;;10.10;;
34928;SDS011;21133;48.048;7.724;2022-12-05T04:24:57;18.00;;;10.43;;
34928;SDS011;21133;48.048;7.724;2022-12-05T04:30:31;20.53;;;10.00;;
34928;SDS011;21133;48.048;7.724;2022-12-05T04:35:27;19.77;;;10.70;;
34928;SDS011;21133;48.048;7.724;2022-12-05T04:37:55;13.87;;;9.30;;
34928;SDS011;21133;48.048;7.724;2022-12-05T04:41:06;14.70;;;9.80;;
34928;SDS011;21133;48.048;7.724;2022-12-05T04:43:12;13.20;;;9.50;;
34928;SDS011;21133;48.048;7.724;2022-12-05T04:45:39;12.43;;;8.50;;
34928;SDS011;21133;48.048;7.724;2022-12-05T04:48:09;13.23;;;9.10;;
34928;SDS011;21133;48.048;7.724;2022-12-05T04:50:35;12.60;;;8.57;;
34928;SDS011;21133;48.048;7.724;2022-12-05T04:53:02;14.87;;;9.10;;
34928;SDS011;21133;48.048;7.724;2022-12-05T04:55:29;18.30;;;10.50;;
34928;SDS011;21133;48.048;7.724;2022-12-05T04:58:12;13.63;;;9.37;;
34928;SDS011;21133;48.048;7.724;2022-12-05T05:00:45;16.27;;;9.30;;
34928;SDS011;21133;48.048;7.724;2022-12-05T05:03:18;10.53;;;9.27;;
34928;SDS011;21133;48.048;7.724;2022-12-05T05:05:47;13.80;;;9.27;;
34928;SDS011;21133;48.048;7.724;2022-12-05T05:08:17;11.83;;;9.23;;
34928;SDS011;21133;48.048;7.724;2022-12-05T05:10:47;8.27;;;7.47;;
34928;SDS011;21133;48.048;7.724;2022-12-05T05:13:15;7.50;;;6.40;;
34928;SDS011;21133;48.048;7.724;2022-12-05T05:15:41;7.70;;;6.23;;
34928;SDS011;21133;48.048;7.724;2022-12-05T05:18:08;7.57;;;6.80;;
34928;SDS011;21133;48.048;7.724;2022-12-05T05:20:34;7.20;;;5.43;;
34928;SDS011;21133;48.048;7.724;2022-12-05T05:23:00;7.50;;;6.67;;
34928;SDS011;21133;48.048;7.724;2022-12-05T05:25:26;6.53;;;6.00;;
34928;SDS011;21133;48.048;7.724;2022-12-05T05:27:53;7.07;;;6.40;;
34928;SDS011;21133;48.048;7.724;2022-12-05T05:30:19;6.37;;;5.90;;
34928;SDS011;21133;48.048;7.724;2022-12-05T05:32:46;6.77;;;6.10;;
34928;SDS011;21133;48.048;7.724;2022-12-05T05:35:12;10.07;;;6.73;;
34928;SDS011;21133;48.048;7.724;2022-12-05T05:37:38;6.60;;;6.10;;
34928;SDS011;21133;48.048;7.724;2022-12-05T05:40:05;7.50;;;6.57;;
34928;SDS011;21133;48.048;7.724;2022-12-05T05:42:31;6.70;;;6.03;;
34928;SDS011;21133;48.048;7.724;2022-12-05T05:44:57;4.97;;;4.60;;
34928;SDS011;21133;48.048;7.724;2022-12-05T05:47:23;6.17;;;5.67;;
34928;SDS011;21133;48.048;7.724;2022-12-05T05:49:49;5.93;;;5.30;;
34928;SDS011;21133;48.048;7.724;2022-12-05T05:52:15;5.33;;;4.93;;
34928;SDS011;21133;48.048;7.724;2022-12-05T05:54:41;7.07;;;6.53;;
34928;SDS011;21133;48.048;7.724;2022-12-05T05:57:07;4.90;;;4.53;;
34928;SDS011;21133;48.048;7.724;2022-12-05T05:59:33;5.53;;;5.23;;
34928;SDS011;21133;48.048;7.724;2022-12-05T06:01:59;6.00;;;5.60;;
34928;SDS011;21133;48.048;7.724;2022-12-05T06:04:25;5.37;;;5.07;;
34928;SDS011;21133;48.048;7.724;2022-12-05T06:06:51;5.90;;;5.30;;
34928;SDS011;21133;48.048;7.724;2022-12-05T06:09:17;14.77;;;4.70;;
34928;SDS011;21133;48.048;7.724;2022-12-05T06:11:43;4.00;;;3.80;;
34928;SDS011;21133;48.048;7.724;2022-12-05T06:14:08;5.37;;;4.97;;
34928;SDS011;21133;48.048;7.724;2022-12-05T06:16:34;5.37;;;5.00;;
34928;SDS011;21133;48.048;7.724;2022-12-05T06:19:00;5.03;;;4.63;;
34928;SDS011;21133;48.048;7.724;2022-12-05T06:21:26;4.93;;;4.60;;
34928;SDS011;21133;48.048;7.724;2022-12-05T06:23:52;5.90;;;5.33;;
34928;SDS011;21133;48.048;7.724;2022-12-05T06:26:19;7.83;;;5.73;;
34928;SDS011;21133;48.048;7.724;2022-12-05T06:28:46;9.17;;;8.37;;
34928;SDS011;21133;48.048;7.724;2022-12-05T06:31:16;5.37;;;4.90;;
34928;SDS011;21133;48.048;7.724;2022-12-05T06:33:43;5.93;;;5.53;;
34928;SDS011;21133;48.048;7.724;2022-12-05T06:36:10;5.03;;;4.73;;
34928;SDS011;21133;48.048;7.724;2022-12-05T06:38:36;4.03;;;3.87;;
34928;SDS011;21133;48.048;7.724;2022-12-05T06:41:10;4.17;;;3.90;;
34928;SDS011;21133;48.048;7.724;2022-12-05T06:43:36;5.27;;;4.97;;
34928;SDS011;21133;48.048;7.724;2022-12-05T06:46:05;5.07;;;4.70;;
34928;SDS011;21133;48.048;7.724;2022-12-05T06:48:32;4.67;;;4.37;;
34928;SDS011;21133;48.048;7.724;2022-12-05T06:50:58;5.00;;;4.60;;
34928;SDS011;21133;48.048;7.724;2022-12-05T06:53:24;5.17;;;4.13;;
34928;SDS011;21133;48.048;7.724;2022-12-05T06:55:54;6.63;;;4.97;;
34928;SDS011;21133;48.048;7.724;2022-12-05T06:58:19;4.80;;;4.50;;
34928;SDS011;21133;48.048;7.724;2022-12-05T07:00:45;5.87;;;3.97;;
34928;SDS011;21133;48.048;7.724;2022-12-05T07:03:30;3.80;;;3.63;;
34928;SDS011;21133;48.048;7.724;2022-12-05T07:05:58;3.73;;;3.53;;
34928;SDS011;21133;48.048;7.724;2022-12-05T07:08:24;4.90;;;4.50;;
34928;SDS011;21133;48.048;7.724;2022-12-05T07:10:51;4.33;;;4.10;;
34928;SDS011;21133;48.048;7.724;2022-12-05T07:13:17;3.50;;;3.20;;
34928;SDS011;21133;48.048;7.724;2022-12-05T07:15:47;4.70;;;3.90;;
34928;SDS011;21133;48.048;7.724;2022-12-05T07:18:13;4.07;;;3.77;;
34928;SDS011;21133;48.048;7.724;2022-12-05T07:20:39;4.13;;;3.93;;
34928;SDS011;21133;48.048;7.724;2022-12-05T07:23:05;3.90;;;3.63;;
34928;SDS011;21133;48.048;7.724;2022-12-05T07:25:31;4.13;;;3.70;;
34928;SDS011;21133;48.048;7.724;2022-12-05T07:27:57;4.78;;;4.47;;
34928;SDS011;21133;48.048;7.724;2022-12-05T07:30:23;3.97;;;3.77;;
34928;SDS011;21133;48.048;7.724;2022-12-05T07:32:49;4.60;;;4.40;;
34928;SDS011;21133;48.048;7.724;2022-12-05T07:35:15;4.50;;;4.30;;
34928;SDS011;21133;48.048;7.724;2022-12-05T07:37:41;4.20;;;3.93;;
34928;SDS011;21133;48.048;7.724;2022-12-05T07:40:07;4.47;;;4.30;;
34928;SDS011;21133;48.048;7.724;2022-12-05T07:42:33;4.13;;;3.83;;
34928;SDS011;21133;48.048;7.724;2022-12-05T07:44:59;3.40;;;3.10;;
34928;SDS011;21133;48.048;7.724;2022-12-05T07:47:25;4.80;;;4.50;;
34928;SDS011;21133;48.048;7.724;2022-12-05T07:49:51;3.93;;;3.70;;
34928;SDS011;21133;48.048;7.724;2022-12-05T07:52:17;5.20;;;3.97;;
34928;SDS011;21133;48.048;7.724;2022-12-05T07:54:43;3.63;;;3.50;;
34928;SDS011;21133;48.048;7.724;2022-12-05T07:57:09;3.40;;;3.17;;
34928;SDS011;21133;48.048;7.724;2022-12-05T07:59:35;3.50;;;3.30;;
34928;SDS011;21133;48.048;7.724;2022-12-05T08:02:01;2.93;;;2.83;;
34928;SDS011;21133;48.048;7.724;2022-12-05T08:04:26;3.73;;;2.90;;
34928;SDS011;21133;48.048;7.724;2022-12-05T08:06:55;3.00;;;2.80;;
34928;SDS011;21133;48.048;7.724;2022-12-05T08:09:21;3.80;;;2.53;;
34928;SDS011;21133;48.048;7.724;2022-12-05T08:11:47;4.27;;;2.80;;
34928;SDS011;21133;48.048;7.724;2022-12-05T08:14:13;3.53;;;3.07;;
34928;SDS011;21133;48.048;7.724;2022-12-05T08:16:39;2.40;;;2.40;;
34928;SDS011;21133;48.048;7.724;2022-12-05T08:19:06;1.93;;;1.83;;
34928;SDS011;21133;48.048;7.724;2022-12-05T08:21:33;2.07;;;2.07;;
34928;SDS011;21133;48.048;7.724;2022-12-05T08:23:59;2.37;;;2.27;;
34928;SDS011;21133;48.048;7.724;2022-12-05T08:26:26;2.47;;;2.30;;
34928;SDS011;21133;48.048;7.724;2022-12-05T08:28:53;2.80;;;2.70;;
34928;SDS011;21133;48.048;7.724;2022-12-05T08:31:20;2.27;;;2.27;;
34928;SDS011;21133;48.048;7.724;2022-12-05T08:33:47;1.73;;;1.73;;
34928;SDS011;21133;48.048;7.724;2022-12-05T08:36:17;2.50;;;2.50;;
34928;SDS011;21133;48.048;7.724;2022-12-05T08:38:43;2.80;;;2.70;;
34928;SDS011;21133;48.048;7.724;2022-12-05T08:41:11;2.13;;;2.10;;
34928;SDS011;21133;48.048;7.724;2022-12-05T08:43:37;1.93;;;1.93;;
34928;SDS011;21133;48.048;7.724;2022-12-05T08:46:03;2.73;;;2.63;;
34928;SDS011;21133;48.048;7.724;2022-12-05T08:48:30;2.30;;;2.20;;
34928;SDS011;21133;48.048;7.724;2022-12-05T08:50:56;2.20;;;2.00;;
34928;SDS011;21133;48.048;7.724;2022-12-05T08:53:22;2.07;;;2.03;;
34928;SDS011;21133;48.048;7.724;2022-12-05T08:55:48;3.27;;;2.30;;
34928;SDS011;21133;48.048;7.724;2022-12-05T08:58:14;3.47;;;3.27;;
34928;SDS011;21133;48.048;7.724;2022-12-05T09:00:41;7.60;;;2.10;;
34928;SDS011;21133;48.048;7.724;2022-12-05T09:03:10;2.30;;;2.20;;
34928;SDS011;21133;48.048;7.724;2022-12-05T09:05:37;1.87;;;1.87;;
34928;SDS011;21133;48.048;7.724;2022-12-05T09:08:03;3.43;;;2.67;;
34928;SDS011;21133;48.048;7.724;2022-12-05T09:10:29;2.20;;;2.20;;
34928;SDS011;21133;48.048;7.724;2022-12-05T09:12:55;2.60;;;2.40;;
34928;SDS011;21133;48.048;7.724;2022-12-05T09:15:21;2.90;;;2.80;;
34928;SDS011;21133;48.048;7.724;2022-12-05T09:17:47;2.63;;;2.53;;
34928;SDS011;21133;48.048;7.724;2022-12-05T09:20:13;2.70;;;2.50;;
34928;SDS011;21133;48.048;7.724;2022-12-05T09:22:39;2.27;;;2.20;;
34928;SDS011;21133;48.048;7.724;2022-12-05T09:25:06;2.70;;;2.50;;
34928;SDS011;21133;48.048;7.724;2022-12-05T09:27:32;8.67;;;2.30;;
34928;SDS011;21133;48.048;7.724;2022-12-05T09:29:58;2.43;;;2.33;;
34928;SDS011;21133;48.048;7.724;2022-12-05T09:32:24;5.20;;;3.03;;
34928;SDS011;21133;48.048;7.724;2022-12-05T09:34:50;2.27;;;2.17;;
34928;SDS011;21133;48.048;7.724;2022-12-05T09:37:16;2.47;;;2.27;;
34928;SDS011;21133;48.048;7.724;2022-12-05T09:39:45;2.60;;;2.40;;
34928;SDS011;21133;48.048;7.724;2022-12-05T09:42:15;3.13;;;2.87;;
34928;SDS011;21133;48.048;7.724;2022-12-05T09:45:04;2.80;;;2.60;;
34928;SDS011;21133;48.048;7.724;2022-12-05T09:55:38;2.57;;;2.47;;
34928;SDS011;21133;48.048;7.724;2022-12-05T10:00:41;10.03;;;1.73;;
34928;SDS011;21133;48.048;7.724;2022-12-05T10:03:11;1.80;;;1.80;;
34928;SDS011;21133;48.048;7.724;2022-12-05T10:05:56;2.30;;;2.30;;
34928;SDS011;21133;48.048;7.724;2022-12-05T10:08:38;2.23;;;2.13;;
34928;SDS011;21133;48.048;7.724;2022-12-05T10:13:39;2.33;;;2.23;;
34928;SDS011;21133;48.048;7.724;2022-12-05T10:16:10;5.80;;;2.80;;
34928;SDS011;21133;48.048;7.724;2022-12-05T10:23:45;2.87;;;2.77;;
34928;SDS011;21133;48.048;7.724;2022-12-05T10:26:14;3.00;;;2.90;;
34928;SDS011;21133;48.048;7.724;2022-12-05T10:28:51;4.53;;;4.23;;
34928;SDS011;21133;48.048;7.724;2022-12-05T10:31:21;3.57;;;3.27;;
34928;SDS011;21133;48.048;7.724;2022-12-05T10:33:52;3.20;;;3.10;;
34928;SDS011;21133;48.048;7.724;2022-12-05T10:36:23;2.57;;;2.43;;
34928;SDS011;21133;48.048;7.724;2022-12-05T10:38:50;3.27;;;3.03;;
34928;SDS011;21133;48.048;7.724;2022-12-05T10:41:16;3.03;;;2.93;;
34928;SDS011;21133;48.048;7.724;2022-12-05T10:43:42;6.20;;;3.43;;
34928;SDS011;21133;48.048;7.724;2022-12-05T10:46:12;3.67;;;3.30;;
34928;SDS011;21133;48.048;7.724;2022-12-05T10:48:40;3.00;;;2.80;;
34928;SDS011;21133;48.048;7.724;2022-12-05T10:51:12;7.47;;;2.90;;
34928;SDS011;21133;48.048;7.724;2022-12-05T10:53:39;3.00;;;2.90;;
34928;SDS011;21133;48.048;7.724;2022-12-05T10:58:54;4.13;;;3.73;;
34928;SDS011;21133;48.048;7.724;2022-12-05T11:01:20;3.97;;;2.90;;
34928;SDS011;21133;48.048;7.724;2022-12-05T11:03:54;3.60;;;3.40;;
34928;SDS011;21133;48.048;7.724;2022-12-05T11:06:27;4.53;;;4.13;;
34928;SDS011;21133;48.048;7.724;2022-12-05T11:08:57;4.67;;;4.27;;
34928;SDS011;21133;48.048;7.724;2022-12-05T11:11:24;7.17;;;3.77;;
34928;SDS011;21133;48.048;7.724;2022-12-05T11:13:56;2.73;;;2.63;;
34928;SDS011;21133;48.048;7.724;2022-12-05T11:16:30;7.97;;;7.10;;
34928;SDS011;21133;48.048;7.724;2022-12-05T11:19:01;5.23;;;4.60;;
34928;SDS011;21133;48.048;7.724;2022-12-05T11:21:42;8.93;;;3.43;;
34928;SDS011;21133;48.048;7.724;2022-12-05T11:26:50;24.70;;;14.27;;
34928;SDS011;21133;48.048;7.724;2022-12-05T11:29:37;18.73;;;9.97;;
34928;SDS011;21133;48.048;7.724;2022-12-05T11:32:05;23.60;;;15.53;;
34928;SDS011;21133;48.048;7.724;2022-12-05T11:34:36;15.50;;;11.90;;
34928;SDS011;21133;48.048;7.724;2022-12-05T11:37:25;5.00;;;4.80;;
34928;SDS011;21133;48.048;7.724;2022-12-05T11:39:50;6.93;;;2.70;;
34928;SDS011;21133;48.048;7.724;2022-12-05T11:42:21;2.77;;;2.67;;
34928;SDS011;21133;48.048;7.724;2022-12-05T11:44:55;2.30;;;2.10;;
34928;SDS011;21133;48.048;7.724;2022-12-05T11:49:58;10.93;;;9.93;;
34928;SDS011;21133;48.048;7.724;2022-12-05T11:55:18;3.57;;;3.37;;
34928;SDS011;21133;48.048;7.724;2022-12-05T12:00:22;4.40;;;3.83;;
34928;SDS011;21133;48.048;7.724;2022-12-05T12:05:37;5.23;;;4.83;;
34928;SDS011;21133;48.048;7.724;2022-12-05T12:10:46;3.10;;;3.00;;
34928;SDS011;21133;48.048;7.724;2022-12-05T12:18:14;12.83;;;2.90;;
34928;SDS011;21133;48.048;7.724;2022-12-05T12:26:10;7.73;;;6.93;;
34928;SDS011;21133;48.048;7.724;2022-12-05T12:28:39;1.97;;;1.87;;
34928;SDS011;21133;48.048;7.724;2022-12-05T12:36:15;2.20;;;2.17;;
34928;SDS011;21133;48.048;7.724;2022-12-05T12:44:15;12.27;;;2.00;;
34928;SDS011;21133;48.048;7.724;2022-12-05T12:51:52;3.57;;;3.47;;
34928;SDS011;21133;48.048;7.724;2022-12-05T12:54:25;3.13;;;2.17;;
34928;SDS011;21133;48.048;7.724;2022-12-05T13:01:51;103.03;;;39.37;;
34928;SDS011;21133;48.048;7.724;2022-12-05T13:04:21;4.33;;;4.03;;
34928;SDS011;21133;48.048;7.724;2022-12-05T13:06:49;4.20;;;3.80;;
34928;SDS011;21133;48.048;7.724;2022-12-05T13:11:42;4.40;;;4.10;;
34928;SDS011;21133;48.048;7.724;2022-12-05T13:14:10;3.43;;;3.23;;
34928;SDS011;21133;48.048;7.724;2022-12-05T13:16:38;2.90;;;2.77;;
34928;SDS011;21133;48.048;7.724;2022-12-05T13:19:05;14.53;;;4.43;;
34928;SDS011;21133;48.048;7.724;2022-12-05T13:21:31;14.00;;;8.90;;
34928;SDS011;21133;48.048;7.724;2022-12-05T13:23:58;39.90;;;14.87;;
34928;SDS011;21133;48.048;7.724;2022-12-05T13:26:27;4.40;;;4.00;;
34928;SDS011;21133;48.048;7.724;2022-12-05T13:28:54;15.70;;;11.07;;
34928;SDS011;21133;48.048;7.724;2022-12-05T13:31:34;7.13;;;4.63;;
34928;SDS011;21133;48.048;7.724;2022-12-05T13:34:00;2.20;;;2.20;;
34928;SDS011;21133;48.048;7.724;2022-12-05T13:36:26;2.10;;;2.10;;
34928;SDS011;21133;48.048;7.724;2022-12-05T13:41:58;2.27;;;2.20;;
34928;SDS011;21133;48.048;7.724;2022-12-05T13:44:49;2.63;;;2.63;;
34928;SDS011;21133;48.048;7.724;2022-12-05T13:52:39;1.90;;;1.90;;
34928;SDS011;21133;48.048;7.724;2022-12-05T13:55:20;6.67;;;3.47;;
34928;SDS011;21133;48.048;7.724;2022-12-05T13:57:49;9.70;;;4.10;;
34928;SDS011;21133;48.048;7.724;2022-12-05T14:07:46;2.83;;;2.40;;
34928;SDS011;21133;48.048;7.724;2022-12-05T14:10:19;1.87;;;1.77;;
34928;SDS011;21133;48.048;7.724;2022-12-05T14:12:47;1.20;;;1.20;;
34928;SDS011;21133;48.048;7.724;2022-12-05T14:15:30;2.47;;;2.20;;
34928;SDS011;21133;48.048;7.724;2022-12-05T14:18:00;5.47;;;4.63;;
34928;SDS011;21133;48.048;7.724;2022-12-05T14:31:12;5.13;;;2.03;;
34928;SDS011;21133;48.048;7.724;2022-12-05T14:33:42;3.97;;;2.67;;
34928;SDS011;21133;48.048;7.724;2022-12-05T14:36:13;2.40;;;2.00;;
34928;SDS011;21133;48.048;7.724;2022-12-05T14:38:40;2.00;;;2.00;;
34928;SDS011;21133;48.048;7.724;2022-12-05T14:41:24;6.17;;;1.70;;
34928;SDS011;21133;48.048;7.724;2022-12-05T14:43:52;2.83;;;2.73;;
34928;SDS011;21133;48.048;7.724;2022-12-05T14:46:23;4.50;;;4.20;;
34928;SDS011;21133;48.048;7.724;2022-12-05T14:48:50;6.93;;;2.80;;
34928;SDS011;21133;48.048;7.724;2022-12-05T14:54:14;1.20;;;1.20;;
34928;SDS011;21133;48.048;7.724;2022-12-05T14:57:03;6.63;;;1.10;;
34928;SDS011;21133;48.048;7.724;2022-12-05T14:59:28;2.40;;;2.30;;
34928;SDS011;21133;48.048;7.724;2022-12-05T15:01:55;2.33;;;2.33;;
34928;SDS011;21133;48.048;7.724;2022-12-05T15:07:09;3.27;;;2.43;;
34928;SDS011;21133;48.048;7.724;2022-12-05T15:09:42;2.33;;;2.13;;
34928;SDS011;21133;48.048;7.724;2022-12-05T15:12:10;1.47;;;1.47;;
34928;SDS011;21133;48.048;7.724;2022-12-05T15:14:41;1.40;;;1.40;;
34928;SDS011;21133;48.048;7.724;2022-12-05T15:17:10;12.20;;;1.50;;
34928;SDS011;21133;48.048;7.724;2022-12-05T15:19:44;1.93;;;1.83;;
34928;SDS011;21133;48.048;7.724;2022-12-05T15:22:15;1.33;;;1.33;;
34928;SDS011;21133;48.048;7.724;2022-12-05T15:24:41;1.40;;;1.40;;
34928;SDS011;21133;48.048;7.724;2022-12-05T15:27:09;0.93;;;0.93;;
34928;SDS011;21133;48.048;7.724;2022-12-05T15:29:35;2.37;;;2.13;;
34928;SDS011;21133;48.048;7.724;2022-12-05T15:37:16;2.77;;;2.53;;
34928;SDS011;21133;48.048;7.724;2022-12-05T15:39:51;1.10;;;1.10;;
34928;SDS011;21133;48.048;7.724;2022-12-05T15:42:24;2.47;;;1.80;;
34928;SDS011;21133;48.048;7.724;2022-12-05T15:44:50;2.33;;;1.30;;
34928;SDS011;21133;48.048;7.724;2022-12-05T15:47:22;1.67;;;1.57;;
34928;SDS011;21133;48.048;7.724;2022-12-05T15:49:49;1.17;;;1.13;;
34928;SDS011;21133;48.048;7.724;2022-12-05T15:52:20;2.53;;;2.33;;
34928;SDS011;21133;48.048;7.724;2022-12-05T15:54:48;14.03;;;2.60;;
34928;SDS011;21133;48.048;7.724;2022-12-05T15:57:16;3.27;;;1.50;;
34928;SDS011;21133;48.048;7.724;2022-12-05T15:59:46;1.70;;;1.60;;
34928;SDS011;21133;48.048;7.724;2022-12-05T16:02:18;3.90;;;1.60;;
34928;SDS011;21133;48.048;7.724;2022-12-05T16:04:48;1.30;;;1.30;;
34928;SDS011;21133;48.048;7.724;2022-12-05T16:07:14;2.20;;;1.63;;
34928;SDS011;21133;48.048;7.724;2022-12-05T16:09:41;1.70;;;1.70;;
34928;SDS011;21133;48.048;7.724;2022-12-05T16:12:16;1.70;;;1.70;;
34928;SDS011;21133;48.048;7.724;2022-12-05T16:14:43;1.50;;;1.50;;
34928;SDS011;21133;48.048;7.724;2022-12-05T16:17:13;4.17;;;1.70;;
34928;SDS011;21133;48.048;7.724;2022-12-05T16:19:40;1.87;;;1.87;;
34928;SDS011;21133;48.048;7.724;2022-12-05T16:22:07;6.43;;;1.57;;
34928;SDS011;21133;48.048;7.724;2022-12-05T16:24:41;2.03;;;1.93;;
34928;SDS011;21133;48.048;7.724;2022-12-05T16:27:21;3.27;;;3.07;;
34928;SDS011;21133;48.048;7.724;2022-12-05T16:30:04;5.40;;;5.00;;
34928;SDS011;21133;48.048;7.724;2022-12-05T16:32:30;3.40;;;3.30;;
34928;SDS011;21133;48.048;7.724;2022-12-05T16:34:58;4.90;;;4.20;;
34928;SDS011;21133;48.048;7.724;2022-12-05T16:37:25;20.53;;;6.33;;
34928;SDS011;21133;48.048;7.724;2022-12-05T16:39:52;34.47;;;11.10;;
34928;SDS011;21133;48.048;7.724;2022-12-05T16:42:25;15.17;;;8.60;;
34928;SDS011;21133;48.048;7.724;2022-12-05T16:44:58;16.73;;;8.53;;
34928;SDS011;21133;48.048;7.724;2022-12-05T16:52:58;13.07;;;7.37;;
34928;SDS011;21133;48.048;7.724;2022-12-05T16:55:25;11.60;;;7.53;;
34928;SDS011;21133;48.048;7.724;2022-12-05T16:57:51;5.40;;;4.73;;
34928;SDS011;21133;48.048;7.724;2022-12-05T17:00:17;10.63;;;6.27;;
34928;SDS011;21133;48.048;7.724;2022-12-05T17:02:44;3.77;;;3.33;;
34928;SDS011;21133;48.048;7.724;2022-12-05T17:05:11;3.07;;;2.97;;
34928;SDS011;21133;48.048;7.724;2022-12-05T17:07:38;3.00;;;2.50;;